Time;durP1;ratioP1;P1;durP2;ratioP2;P2;SDS_P1;SDS_P2;PMS_P1;PMS_P2;Temp;Humidity;BMP_temperature;BMP_pressure;BME280_temperature;BME280_humidity;BME280_pressure;Samples;Min_cycle;Max_cycle;Signal;HPM_P1;HPM_P2
2023/09/04 00:00:50;;;;;;;2.20;1.23;;;;;;;;;;5059803;28;20520;-58
2023/09/04 00:03:17;;;;;;;2.17;1.35;;;;;;;;;;5074137;28;20059;-58
2023/09/04 00:05:44;;;;;;;1.95;1.13;;;;;;;;;;5074200;28;20481;-58
2023/09/04 00:08:11;;;;;;;1.98;1.02;;;;;;;;;;5071841;28;20055;-58
2023/09/04 00:10:37;;;;;;;2.40;1.52;;;;;;;;;;5073905;28;20061;-57
2023/09/04 00:13:04;;;;;;;2.35;1.20;;;;;;;;;;5073726;28;20052;-58
2023/09/04 00:15:31;;;;;;;2.53;1.30;;;;;;;;;;5073932;28;20059;-58
2023/09/04 00:17:59;;;;;;;2.22;1.40;;;;;;;;;;5073504;28;20052;-58
2023/09/04 00:20:26;;;;;;;2.30;1.52;;;;;;;;;;5072815;28;20048;-58
2023/09/04 00:22:53;;;;;;;2.40;1.55;;;;;;;;;;5071849;28;20048;-57
2023/09/04 00:25:19;;;;;;;2.63;1.42;;;;;;;;;;5073831;28;20056;-58
2023/09/04 00:27:46;;;;;;;1.70;0.98;;;;;;;;;;5073422;28;20053;-58
2023/09/04 00:30:13;;;;;;;1.83;1.13;;;;;;;;;;5073240;28;20048;-58
2023/09/04 00:32:40;;;;;;;2.30;1.10;;;;;;;;;;5072224;28;20059;-57
2023/09/04 00:35:13;;;;;;;2.88;1.60;;;;;;;;;;5068839;28;20394;-57
2023/09/04 00:37:40;;;;;;;3.58;1.33;;;;;;;;;;5070761;28;20065;-58
2023/09/04 00:40:08;;;;;;;1.90;1.27;;;;;;;;;;5068472;28;20060;-57
2023/09/04 00:42:35;;;;;;;2.08;1.30;;;;;;;;;;5072239;28;20052;-57
2023/09/04 00:45:02;;;;;;;2.13;1.15;;;;;;;;;;5072197;28;20048;-58
2023/09/04 00:47:30;;;;;;;2.33;1.58;;;;;;;;;;5070511;28;20059;-58
2023/09/04 00:49:57;;;;;;;3.00;1.70;;;;;;;;;;5070311;28;20469;-58
2023/09/04 00:52:26;;;;;;;2.35;1.42;;;;;;;;;;5070042;28;20515;-58
2023/09/04 00:54:53;;;;;;;3.25;1.60;;;;;;;;;;5070922;28;20064;-57
2023/09/04 00:57:20;;;;;;;1.55;1.10;;;;;;;;;;5071381;28;20078;-57
2023/09/04 00:59:47;;;;;;;3.10;1.40;;;;;;;;;;5066925;28;20056;-58
2023/09/04 01:02:14;;;;;;;2.20;1.52;;;;;;;;;;5071410;28;20044;-58
2023/09/04 01:04:41;;;;;;;2.53;1.38;;;;;;;;;;5071022;28;20049;-57
2023/09/04 01:07:08;;;;;;;3.30;1.17;;;;;;;;;;5070364;28;20074;-57
2023/09/04 01:09:36;;;;;;;3.03;1.35;;;;;;;;;;5067518;28;20485;-59
2023/09/04 01:12:06;;;;;;;2.10;1.20;;;;;;;;;;5064009;28;20048;-58
2023/09/04 01:14:34;;;;;;;1.77;1.25;;;;;;;;;;5065685;28;20507;-58
2023/09/04 01:17:02;;;;;;;3.55;1.50;;;;;;;;;;5069024;28;20044;-57
2023/09/04 01:19:28;;;;;;;3.10;1.35;;;;;;;;;;5070833;28;20063;-58
2023/09/04 01:21:57;;;;;;;3.00;1.42;;;;;;;;;;5069757;28;20048;-58
2023/09/04 01:24:24;;;;;;;2.55;1.33;;;;;;;;;;5067823;28;20044;-58
2023/09/04 01:26:54;;;;;;;2.65;1.30;;;;;;;;;;5068815;28;20410;-58
2023/09/04 01:29:25;;;;;;;1.85;1.27;;;;;;;;;;5071086;28;20056;-58
2023/09/04 01:31:58;;;;;;;4.95;1.83;;;;;;;;;;5070504;28;20052;-58
2023/09/04 01:34:26;;;;;;;1.80;1.35;;;;;;;;;;5070332;28;20496;-58
2023/09/04 01:36:53;;;;;;;2.08;1.38;;;;;;;;;;5070355;28;20048;-57
2023/09/04 01:39:25;;;;;;;3.35;1.33;;;;;;;;;;5067481;28;20052;-57
2023/09/04 01:41:52;;;;;;;2.85;1.33;;;;;;;;;;5070825;28;20059;-57
2023/09/04 01:44:20;;;;;;;2.42;1.42;;;;;;;;;;5067602;28;20048;-57
2023/09/04 01:46:46;;;;;;;1.98;1.10;;;;;;;;;;5070388;28;20059;-57
2023/09/04 01:49:15;;;;;;;2.72;1.48;;;;;;;;;;5068588;28;20409;-57
2023/09/04 01:51:42;;;;;;;6.45;1.73;;;;;;;;;;5071397;28;20053;-57
2023/09/04 01:54:11;;;;;;;2.88;1.73;;;;;;;;;;5067054;28;20056;-58
2023/09/04 01:56:44;;;;;;;2.80;1.52;;;;;;;;;;5069583;28;20056;-57
2023/09/04 01:59:11;;;;;;;2.42;1.60;;;;;;;;;;5069715;28;20048;-57
2023/09/04 02:01:41;;;;;;;2.28;1.45;;;;;;;;;;5069045;28;20494;-57
2023/09/04 02:04:11;;;;;;;2.95;1.20;;;;;;;;;;5073098;28;20394;-57
2023/09/04 02:06:38;;;;;;;2.28;1.35;;;;;;;;;;5073886;28;20400;-57
2023/09/04 02:09:05;;;;;;;2.53;1.60;;;;;;;;;;5071760;28;20052;-57
2023/09/04 02:11:32;;;;;;;7.70;1.40;;;;;;;;;;5072237;28;20059;-57
2023/09/04 02:14:01;;;;;;;2.60;1.50;;;;;;;;;;5073912;28;20041;-58
2023/09/04 02:16:29;;;;;;;;;;;;;;;;;;5075738;28;20052;-58
2023/09/04 02:18:58;;;;;;;3.20;1.98;;;;;;;;;;5073402;28;19920;-58
2023/09/04 02:21:25;;;;;;;2.45;1.05;;;;;;;;;;5076347;28;20163;-57
2023/09/04 02:23:52;;;;;;;2.13;1.30;;;;;;;;;;5066586;28;20044;-57
2023/09/04 02:26:18;;;;;;;2.40;1.20;;;;;;;;;;5073766;28;20060;-57
2023/09/04 02:28:45;;;;;;;2.40;1.58;;;;;;;;;;5067094;28;20053;-57
2023/09/04 02:31:13;;;;;;;2.38;1.30;;;;;;;;;;5074542;28;20059;-57
2023/09/04 02:33:40;;;;;;;2.08;1.42;;;;;;;;;;5074408;28;20436;-57
2023/09/04 02:36:09;;;;;;;2.35;1.35;;;;;;;;;;5073705;28;20178;-57
2023/09/04 02:38:36;;;;;;;2.13;1.15;;;;;;;;;;5067500;28;20048;-57
2023/09/04 02:41:03;;;;;;;1.77;1.48;;;;;;;;;;5074389;28;20052;-57
2023/09/04 02:43:29;;;;;;;2.22;1.30;;;;;;;;;;5068064;28;20355;-57
2023/09/04 02:45:57;;;;;;;6.30;1.33;;;;;;;;;;5073749;28;20053;-57
2023/09/04 02:48:26;;;;;;;2.83;1.60;;;;;;;;;;5073727;28;20394;-58
2023/09/04 02:50:57;;;;;;;1.88;1.30;;;;;;;;;;5074311;28;20057;-57
2023/09/04 02:53:26;;;;;;;2.75;1.30;;;;;;;;;;5070682;28;20501;-57
2023/09/04 02:55:54;;;;;;;1.67;1.08;;;;;;;;;;5073350;28;20059;-57
2023/09/04 02:58:24;;;;;;;3.33;1.48;;;;;;;;;;5074585;28;20048;-58
2023/09/04 03:00:51;;;;;;;2.47;1.25;;;;;;;;;;5073078;28;20394;-58
2023/09/04 03:03:19;;;;;;;3.22;1.13;;;;;;;;;;5068114;28;20053;-57
2023/09/04 03:05:52;;;;;;;2.65;1.80;;;;;;;;;;5071359;28;20045;-58
2023/09/04 03:08:19;;;;;;;3.13;1.50;;;;;;;;;;5065454;28;20051;-58
2023/09/04 03:10:46;;;;;;;3.75;1.60;;;;;;;;;;5073955;28;20053;-57
2023/09/04 03:13:13;;;;;;;2.97;1.13;;;;;;;;;;5073317;28;20059;-58
2023/09/04 03:15:39;;;;;;;2.53;1.30;;;;;;;;;;5072093;28;20378;-57
2023/09/04 03:18:06;;;;;;;2.22;1.33;;;;;;;;;;5073356;28;20383;-58
2023/09/04 03:20:33;;;;;;;2.97;1.10;;;;;;;;;;5072021;28;20497;-57
2023/09/04 03:23:01;;;;;;;3.90;1.30;;;;;;;;;;5072126;28;20159;-58
2023/09/04 03:25:28;;;;;;;2.42;1.50;;;;;;;;;;5072032;28;20047;-58
2023/09/04 03:27:55;;;;;;;2.13;1.20;;;;;;;;;;5074650;28;20052;-57
2023/09/04 03:30:22;;;;;;;2.65;1.60;;;;;;;;;;5073014;28;20052;-57
2023/09/04 03:32:49;;;;;;;2.45;1.33;;;;;;;;;;5073551;28;20044;-57
2023/09/04 03:35:17;;;;;;;2.08;1.15;;;;;;;;;;5073683;28;20045;-58
2023/09/04 03:37:44;;;;;;;3.00;1.67;;;;;;;;;;5071392;28;20056;-58
2023/09/04 03:40:18;;;;;;;3.45;1.40;;;;;;;;;;5070682;28;20425;-58
2023/09/04 03:42:45;;;;;;;2.20;1.55;;;;;;;;;;5072364;28;20481;-58
2023/09/04 03:45:12;;;;;;;1.73;1.27;;;;;;;;;;5071941;28;20051;-57
2023/09/04 03:47:39;;;;;;;3.55;1.65;;;;;;;;;;5069337;28;20063;-58
2023/09/04 03:50:09;;;;;;;2.42;1.65;;;;;;;;;;5071459;28;20058;-57
2023/09/04 03:52:36;;;;;;;2.75;2.05;;;;;;;;;;5071296;28;20049;-57
2023/09/04 03:55:06;;;;;;;3.00;2.13;;;;;;;;;;5072450;28;20044;-57
2023/09/04 03:57:34;;;;;;;;;;;;;;;;;;5072562;28;20098;-57
2023/09/04 04:00:10;;;;;;;3.10;1.85;;;;;;;;;;5073045;28;20370;-57
2023/09/04 04:02:38;;;;;;;1.73;1.23;;;;;;;;;;5069691;28;20055;-57
2023/09/04 04:05:06;;;;;;;2.53;1.63;;;;;;;;;;5069455;28;20473;-58
2023/09/04 04:07:35;;;;;;;2.20;1.35;;;;;;;;;;5068360;28;20584;-58
2023/09/04 04:10:05;;;;;;;1.70;1.00;;;;;;;;;;5065514;28;20063;-58
2023/09/04 04:12:32;;;;;;;2.85;1.45;;;;;;;;;;5073322;28;20358;-58
2023/09/04 04:14:59;;;;;;;2.53;1.33;;;;;;;;;;5071819;28;20053;-58
2023/09/04 04:17:27;;;;;;;2.95;1.60;;;;;;;;;;5071286;28;20444;-59
2023/09/04 04:19:54;;;;;;;10.13;1.83;;;;;;;;;;5070756;28;20378;-58
2023/09/04 04:22:21;;;;;;;4.15;1.63;;;;;;;;;;5071689;28;20055;-58
2023/09/04 04:24:48;;;;;;;3.20;1.27;;;;;;;;;;5070890;28;20382;-58
2023/09/04 04:27:16;;;;;;;1.67;1.20;;;;;;;;;;5069055;28;20052;-58
2023/09/04 04:29:43;;;;;;;2.63;1.75;;;;;;;;;;5070527;28;20052;-58
2023/09/04 04:32:10;;;;;;;3.15;2.03;;;;;;;;;;5071333;28;20377;-58
2023/09/04 04:34:38;;;;;;;3.35;2.05;;;;;;;;;;5065458;28;20068;-58
2023/09/04 04:37:05;;;;;;;3.78;1.60;;;;;;;;;;5061182;28;20052;-58
2023/09/04 04:39:31;;;;;;;3.53;1.42;;;;;;;;;;5066223;28;20059;-57
2023/09/04 04:41:58;;;;;;;3.88;1.70;;;;;;;;;;5068893;28;20511;-57
2023/09/04 04:44:25;;;;;;;3.67;1.55;;;;;;;;;;5071725;28;20048;-57
2023/09/04 04:46:52;;;;;;;3.83;1.30;;;;;;;;;;5071426;28;20067;-57
2023/09/04 04:49:20;;;;;;;3.70;1.95;;;;;;;;;;5068704;28;20052;-58
2023/09/04 04:51:51;;;;;;;2.78;1.40;;;;;;;;;;5067837;28;20044;-57
2023/09/04 04:54:19;;;;;;;2.90;1.67;;;;;;;;;;5069871;28;20048;-57
2023/09/04 04:56:47;;;;;;;4.43;2.13;;;;;;;;;;5070592;28;20662;-57
2023/09/04 04:59:14;;;;;;;2.60;1.50;;;;;;;;;;5071074;28;20052;-57
2023/09/04 05:01:41;;;;;;;2.65;2.15;;;;;;;;;;5066854;28;20052;-57
2023/09/04 05:04:07;;;;;;;6.25;1.73;;;;;;;;;;5067213;28;20049;-57
2023/09/04 05:06:34;;;;;;;2.88;1.83;;;;;;;;;;5069788;28;20093;-57
2023/09/04 05:09:03;;;;;;;4.90;1.67;;;;;;;;;;5070708;28;20044;-57
2023/09/04 05:11:30;;;;;;;2.88;1.58;;;;;;;;;;5055368;28;20063;-57
2023/09/04 05:13:57;;;;;;;4.25;1.63;;;;;;;;;;5069449;28;20056;-56
2023/09/04 05:16:24;;;;;;;2.25;1.50;;;;;;;;;;5070596;28;20063;-57
2023/09/04 05:18:50;;;;;;;2.60;1.80;;;;;;;;;;5068465;28;20051;-57
2023/09/04 05:21:17;;;;;;;3.10;1.48;;;;;;;;;;5070251;28;20385;-57
2023/09/04 05:23:47;;;;;;;3.42;1.38;;;;;;;;;;5068950;28;20472;-57
2023/09/04 05:26:15;;;;;;;5.63;1.80;;;;;;;;;;5069424;28;20047;-57
2023/09/04 05:28:42;;;;;;;1.95;1.52;;;;;;;;;;5064026;28;20060;-57
2023/09/04 05:31:09;;;;;;;2.47;1.50;;;;;;;;;;5068732;28;20055;-57
2023/09/04 05:33:35;;;;;;;3.05;1.55;;;;;;;;;;5061933;28;20069;-58
2023/09/04 05:36:02;;;;;;;3.35;1.55;;;;;;;;;;5069827;28;20052;-57
2023/09/04 05:38:29;;;;;;;2.58;1.40;;;;;;;;;;5070759;28;20053;-57
2023/09/04 05:40:57;;;;;;;1.63;1.20;;;;;;;;;;5071782;28;20472;-57
2023/09/04 05:43:26;;;;;;;8.73;2.22;;;;;;;;;;5072225;28;20421;-57
2023/09/04 05:45:53;;;;;;;2.40;1.23;;;;;;;;;;5072271;28;20053;-57
2023/09/04 05:48:19;;;;;;;6.05;1.42;;;;;;;;;;5072120;28;20055;-57
2023/09/04 05:50:46;;;;;;;3.05;1.77;;;;;;;;;;5071183;28;20049;-57
2023/09/04 05:53:13;;;;;;;3.10;1.67;;;;;;;;;;5070082;28;20053;-57
2023/09/04 05:55:42;;;;;;;4.90;2.10;;;;;;;;;;5071147;28;20143;-57
2023/09/04 05:58:10;;;;;;;2.15;1.45;;;;;;;;;;5051792;28;20084;-57
2023/09/04 06:00:38;;;;;;;2.95;1.75;;;;;;;;;;5054547;28;20053;-57
2023/09/04 06:03:05;;;;;;;4.10;1.42;;;;;;;;;;5072295;28;20064;-57
2023/09/04 06:05:32;;;;;;;3.72;1.85;;;;;;;;;;5072181;28;20063;-57
2023/09/04 06:07:58;;;;;;;4.32;2.10;;;;;;;;;;5068695;28;20080;-57
2023/09/04 06:10:25;;;;;;;2.20;1.50;;;;;;;;;;5071498;28;20048;-57
2023/09/04 06:12:54;;;;;;;4.82;1.80;;;;;;;;;;5069543;28;20057;-57
2023/09/04 06:15:21;;;;;;;2.35;1.65;;;;;;;;;;5062007;28;20417;-57
2023/09/04 06:17:49;;;;;;;2.63;1.85;;;;;;;;;;5071230;28;20052;-57
2023/09/04 06:20:16;;;;;;;2.90;1.75;;;;;;;;;;5070198;28;20412;-58
2023/09/04 06:22:43;;;;;;;2.95;1.70;;;;;;;;;;5069800;28;20079;-57
2023/09/04 06:25:10;;;;;;;6.30;2.17;;;;;;;;;;5068173;28;20048;-57
2023/09/04 06:27:37;;;;;;;3.75;1.88;;;;;;;;;;5062321;28;20413;-57
2023/09/04 06:30:05;;;;;;;3.85;2.00;;;;;;;;;;5069713;28;20056;-57
2023/09/04 06:32:32;;;;;;;2.20;1.73;;;;;;;;;;5069692;28;20052;-58
2023/09/04 06:35:01;;;;;;;2.45;1.58;;;;;;;;;;5064611;28;20474;-58
2023/09/04 06:37:27;;;;;;;2.65;1.60;;;;;;;;;;5068167;28;20075;-58
2023/09/04 06:39:54;;;;;;;4.20;2.17;;;;;;;;;;5065528;28;20052;-58
2023/09/04 06:42:21;;;;;;;4.70;2.33;;;;;;;;;;5070369;28;20056;-58
2023/09/04 06:44:48;;;;;;;2.00;1.23;;;;;;;;;;5069648;28;20048;-58
2023/09/04 06:47:14;;;;;;;3.33;2.00;;;;;;;;;;5075900;28;20396;-58
2023/09/04 06:49:41;;;;;;;3.85;2.13;;;;;;;;;;5069221;28;20431;-58
2023/09/04 06:52:09;;;;;;;4.63;1.85;;;;;;;;;;5070537;28;20071;-58
2023/09/04 06:54:36;;;;;;;4.95;1.90;;;;;;;;;;5072976;28;20049;-58
2023/09/04 06:57:03;;;;;;;5.07;1.95;;;;;;;;;;5070673;28;20044;-58
2023/09/04 06:59:30;;;;;;;4.57;2.55;;;;;;;;;;5058964;28;20053;-57
2023/09/04 07:01:56;;;;;;;4.15;2.80;;;;;;;;;;5068153;28;20059;-58
2023/09/04 07:04:23;;;;;;;5.25;2.53;;;;;;;;;;5068704;28;20155;-58
2023/09/04 07:06:50;;;;;;;4.68;2.30;;;;;;;;;;5072131;28;20071;-58
2023/09/04 07:09:18;;;;;;;4.32;2.03;;;;;;;;;;5075553;28;20060;-57
2023/09/04 07:11:45;;;;;;;4.07;2.22;;;;;;;;;;5073378;28;20068;-57
2023/09/04 07:14:12;;;;;;;7.55;3.13;;;;;;;;;;5073877;28;20060;-57
2023/09/04 07:16:38;;;;;;;3.38;2.17;;;;;;;;;;5072569;28;20044;-57
2023/09/04 07:19:05;;;;;;;4.95;2.47;;;;;;;;;;5062389;28;20056;-58
2023/09/04 07:21:32;;;;;;;6.47;3.33;;;;;;;;;;5066015;28;20061;-57
2023/09/04 07:23:59;;;;;;;5.45;2.83;;;;;;;;;;5067064;28;20052;-57
2023/09/04 07:26:27;;;;;;;3.35;2.45;;;;;;;;;;5067780;28;20055;-57
2023/09/04 07:28:54;;;;;;;4.07;2.72;;;;;;;;;;5069102;28;20449;-58
2023/09/04 07:31:21;;;;;;;5.50;2.42;;;;;;;;;;5065733;28;20049;-58
2023/09/04 07:33:49;;;;;;;3.65;2.50;;;;;;;;;;5063026;28;20519;-57
2023/09/04 07:36:17;;;;;;;3.97;3.05;;;;;;;;;;5067726;28;20067;-57
2023/09/04 07:38:44;;;;;;;2.85;1.85;;;;;;;;;;5065713;28;20368;-58
2023/09/04 07:41:11;;;;;;;3.53;2.08;;;;;;;;;;5062706;28;20045;-58
2023/09/04 07:43:39;;;;;;;7.13;2.47;;;;;;;;;;5062493;28;20053;-58
2023/09/04 07:46:06;;;;;;;3.85;2.47;;;;;;;;;;5065987;28;20056;-58
2023/09/04 07:48:33;;;;;;;2.75;1.65;;;;;;;;;;5062075;28;20056;-59
2023/09/04 07:51:00;;;;;;;4.30;1.75;;;;;;;;;;5058982;28;20056;-57
2023/09/04 07:53:27;;;;;;;2.53;1.50;;;;;;;;;;5069973;28;20512;-58
2023/09/04 07:55:54;;;;;;;2.75;1.75;;;;;;;;;;5072718;28;20420;-58
2023/09/04 07:58:21;;;;;;;3.88;1.52;;;;;;;;;;5068343;28;20052;-59
2023/09/04 08:00:49;;;;;;;3.92;2.10;;;;;;;;;;5070207;28;20048;-59
2023/09/04 08:03:16;;;;;;;2.15;1.25;;;;;;;;;;5066143;28;20067;-59
2023/09/04 08:05:43;;;;;;;2.63;1.30;;;;;;;;;;5062899;28;20135;-59
2023/09/04 08:08:11;;;;;;;2.95;1.60;;;;;;;;;;5063142;28;20064;-59
2023/09/04 08:10:39;;;;;;;2.40;1.40;;;;;;;;;;5069964;28;20375;-59
2023/09/04 08:13:07;;;;;;;1.85;1.20;;;;;;;;;;5069965;28;20056;-59
2023/09/04 08:15:34;;;;;;;2.45;1.33;;;;;;;;;;5069795;28;20055;-59
2023/09/04 08:18:02;;;;;;;2.95;1.38;;;;;;;;;;5070685;28;20045;-60
2023/09/04 08:20:29;;;;;;;2.10;1.15;;;;;;;;;;5062502;28;20056;-59
2023/09/04 08:22:56;;;;;;;2.38;1.30;;;;;;;;;;5070292;28;20520;-58
2023/09/04 08:25:22;;;;;;;1.50;0.98;;;;;;;;;;5071532;28;20500;-58
2023/09/04 08:27:49;;;;;;;4.13;1.10;;;;;;;;;;5066148;28;20413;-58
2023/09/04 08:30:16;;;;;;;2.75;1.38;;;;;;;;;;5066427;28;20075;-59
2023/09/04 08:32:44;;;;;;;1.63;1.00;;;;;;;;;;5066872;28;20048;-58
2023/09/04 08:35:12;;;;;;;1.63;0.80;;;;;;;;;;5059667;28;20055;-59
2023/09/04 08:37:39;;;;;;;1.27;0.77;;;;;;;;;;5065995;28;20048;-58
2023/09/04 08:40:06;;;;;;;1.80;0.97;;;;;;;;;;5065968;28;20052;-58
2023/09/04 08:42:33;;;;;;;3.33;1.23;;;;;;;;;;5053492;28;20127;-58
2023/09/04 08:45:02;;;;;;;1.80;1.10;;;;;;;;;;5053373;28;20056;-59
2023/09/04 08:47:29;;;;;;;1.67;0.80;;;;;;;;;;5053270;28;20053;-58
2023/09/04 08:49:56;;;;;;;2.50;0.90;;;;;;;;;;5053331;28;20060;-59
2023/09/04 08:52:25;;;;;;;1.73;0.95;;;;;;;;;;5052920;28;20056;-58
2023/09/04 08:54:51;;;;;;;1.67;0.90;;;;;;;;;;5052809;28;20391;-59
2023/09/04 08:57:18;;;;;;;2.50;0.88;;;;;;;;;;5052697;28;20125;-59
2023/09/04 08:59:45;;;;;;;1.37;1.00;;;;;;;;;;5053330;28;20049;-58
2023/09/04 09:02:14;;;;;;;2.00;1.15;;;;;;;;;;5053072;28;20053;-59
2023/09/04 09:04:41;;;;;;;1.60;1.00;;;;;;;;;;5053267;28;20057;-58
2023/09/04 09:07:09;;;;;;;1.77;1.10;;;;;;;;;;5052844;28;20072;-58
2023/09/04 09:09:38;;;;;;;3.35;1.30;;;;;;;;;;5053212;28;20056;-58
2023/09/04 09:12:05;;;;;;;2.13;1.10;;;;;;;;;;5052820;28;20052;-58
2023/09/04 09:14:32;;;;;;;2.38;1.30;;;;;;;;;;5052935;28;20505;-59
2023/09/04 09:17:02;;;;;;;2.47;0.95;;;;;;;;;;5052805;28;20072;-58
2023/09/04 09:19:31;;;;;;;1.60;0.90;;;;;;;;;;5052989;28;20057;-58
2023/09/04 09:22:08;;;;;;;1.25;0.80;;;;;;;;;;5052446;28;20525;-59
2023/09/04 09:24:48;;;;;;;1.30;0.82;;;;;;;;;;5052332;28;20049;-58
2023/09/04 09:27:15;;;;;;;2.35;1.35;;;;;;;;;;5052597;28;20075;-58
2023/09/04 09:29:42;;;;;;;1.47;0.90;;;;;;;;;;5060103;28;20052;-59
2023/09/04 09:32:09;;;;;;;2.23;1.13;;;;;;;;;;5072627;28;20055;-59
2023/09/04 09:34:36;;;;;;;1.25;0.88;;;;;;;;;;5072447;28;20088;-59
2023/09/04 09:37:03;;;;;;;1.53;1.20;;;;;;;;;;5072282;28;20055;-59
2023/09/04 09:39:30;;;;;;;2.70;1.05;;;;;;;;;;5072377;28;20060;-58
2023/09/04 09:41:59;;;;;;;2.17;1.00;;;;;;;;;;5072063;28;20489;-58
2023/09/04 09:44:29;;;;;;;2.15;1.00;;;;;;;;;;5072385;28;20057;-59
2023/09/04 09:46:55;;;;;;;1.33;0.77;;;;;;;;;;5072270;28;20052;-60
2023/09/04 09:49:22;;;;;;;3.72;1.00;;;;;;;;;;5072527;28;20052;-57
2023/09/04 09:51:51;;;;;;;2.60;0.98;;;;;;;;;;5072031;28;20055;-59
2023/09/04 09:54:33;;;;;;;1.20;0.98;;;;;;;;;;5072579;28;20053;-59
2023/09/04 09:57:02;;;;;;;1.48;0.93;;;;;;;;;;5072340;28;20508;-59
2023/09/04 09:59:30;;;;;;;1.30;1.00;;;;;;;;;;5071957;28;20056;-59
2023/09/04 10:01:56;;;;;;;;;;;;;;;;;;5072674;28;20079;-59
2023/09/04 10:04:25;;;;;;;1.30;0.73;;;;;;;;;;5072256;28;19920;-59
2023/09/04 10:06:53;;;;;;;2.38;0.90;;;;;;;;;;5071814;28;20485;-58
2023/09/04 10:09:22;;;;;;;1.75;0.90;;;;;;;;;;5072072;28;20056;-59
2023/09/04 10:11:52;;;;;;;1.48;0.90;;;;;;;;;;5072028;28;20060;-57
2023/09/04 10:14:25;;;;;;;1.00;0.70;;;;;;;;;;5071914;28;20064;-58
2023/09/04 10:16:54;;;;;;;1.50;0.77;;;;;;;;;;5072128;28;20470;-58
2023/09/04 10:19:23;;;;;;;1.52;0.80;;;;;;;;;;5071836;28;20060;-58
2023/09/04 10:21:53;;;;;;;1.33;0.80;;;;;;;;;;5071947;28;20147;-58
2023/09/04 10:24:23;;;;;;;1.95;0.90;;;;;;;;;;5071648;28;20052;-59
2023/09/04 10:26:53;;;;;;;1.27;0.88;;;;;;;;;;5075523;28;20056;-58
2023/09/04 10:29:26;;;;;;;1.33;0.95;;;;;;;;;;5075044;28;20477;-58
2023/09/04 10:31:53;;;;;;;1.55;0.90;;;;;;;;;;5075530;28;20060;-58
2023/09/04 10:34:20;;;;;;;1.10;0.82;;;;;;;;;;5075287;28;20052;-58
2023/09/04 10:36:47;;;;;;;1.92;0.98;;;;;;;;;;5075904;28;20075;-58
2023/09/04 10:39:14;;;;;;;;;;;;;;;;;;5076287;28;20056;-58
2023/09/04 10:41:41;;;;;;;0.90;0.60;;;;;;;;;;5076132;28;19943;-58
2023/09/04 10:44:08;;;;;;;;;;;;;;;;;;5076155;28;20136;-58
2023/09/04 10:46:38;;;;;;;1.58;0.90;;;;;;;;;;5076068;28;19920;-59
2023/09/04 10:49:05;;;;;;;1.02;0.70;;;;;;;;;;5075285;28;20052;-58
2023/09/04 10:51:32;;;;;;;1.15;0.70;;;;;;;;;;5075511;28;20477;-58
2023/09/04 10:54:00;;;;;;;1.38;0.80;;;;;;;;;;5075470;28;20049;-59
2023/09/04 10:56:27;;;;;;;1.40;0.80;;;;;;;;;;5075459;28;20064;-58
2023/09/04 10:59:02;;;;;;;1.58;0.60;;;;;;;;;;5075290;28;20055;-58
2023/09/04 11:01:32;;;;;;;1.58;0.70;;;;;;;;;;5075480;28;20064;-59
2023/09/04 11:04:02;;;;;;;1.52;0.88;;;;;;;;;;5074916;28;20056;-58
2023/09/04 11:06:28;;;;;;;1.20;0.80;;;;;;;;;;5075297;28;20063;-58
2023/09/04 11:08:55;;;;;;;;;;;;;;;;;;5075478;28;20048;-58
2023/09/04 11:11:22;;;;;;;;;;;;;;;;;;5075991;28;20293;-58
2023/09/04 11:13:55;;;;;;;1.10;0.80;;;;;;;;;;5075398;28;19926;-58
2023/09/04 11:16:24;;;;;;;1.33;0.90;;;;;;;;;;5075225;28;20163;-59
2023/09/04 11:19:00;;;;;;;0.85;0.60;;;;;;;;;;5074876;28;20106;-59
2023/09/04 11:21:27;;;;;;;;;;;;;;;;;;5075684;28;20397;-58
2023/09/04 11:23:53;;;;;;;;;;;;;;;;;;5075647;28;19935;-58
2023/09/04 11:26:22;;;;;;;0.88;0.60;;;;;;;;;;5075174;28;19927;-59
2023/09/04 11:28:49;;;;;;;1.10;0.68;;;;;;;;;;5074445;28;20059;-58
2023/09/04 11:31:15;;;;;;;1.50;0.90;;;;;;;;;;5054787;28;20398;-58
2023/09/04 11:33:42;;;;;;;;;;;;;;;;;;5054983;28;20053;-58
2023/09/04 11:36:09;;;;;;;1.30;0.63;;;;;;;;;;5054237;28;19928;-58
2023/09/04 11:38:36;;;;;;;0.93;0.52;;;;;;;;;;5054361;28;20056;-59
2023/09/04 11:41:14;;;;;;;1.13;0.68;;;;;;;;;;5054633;28;20057;-59
2023/09/04 11:43:42;;;;;;;1.60;0.85;;;;;;;;;;5054565;28;20056;-59
2023/09/04 11:46:10;;;;;;;1.85;0.90;;;;;;;;;;5054503;28;20056;-58
2023/09/04 11:48:37;;;;;;;1.35;0.82;;;;;;;;;;5054154;28;20053;-59
2023/09/04 11:51:04;;;;;;;;;;;;;;;;;;5055089;28;20053;-59
2023/09/04 11:53:31;;;;;;;4.57;0.82;;;;;;;;;;5054702;28;19928;-59
2023/09/04 11:55:58;;;;;;;3.17;0.70;;;;;;;;;;5054592;28;20370;-59
2023/09/04 11:58:28;;;;;;;2.22;0.70;;;;;;;;;;5053930;28;20052;-59
2023/09/04 12:00:56;;;;;;;2.42;0.90;;;;;;;;;;5054234;28;20491;-59
2023/09/04 12:03:23;;;;;;;1.25;0.80;;;;;;;;;;5054375;28;20596;-59
2023/09/04 12:05:51;;;;;;;;;;;;;;;;;;5054729;28;20064;-59
2023/09/04 12:08:18;;;;;;;1.15;0.80;;;;;;;;;;5054066;28;20309;-59
2023/09/04 12:10:45;;;;;;;1.20;0.82;;;;;;;;;;5053771;28;20509;-59
2023/09/04 12:13:12;;;;;;;0.90;0.60;;;;;;;;;;5053616;28;20065;-59
2023/09/04 12:15:39;;;;;;;2.47;1.10;;;;;;;;;;5054004;28;20068;-58
2023/09/04 12:18:05;;;;;;;;;;;;;;;;;;5054343;28;20053;-58
2023/09/04 12:20:32;;;;;;;;;;;;;;;;;;5054530;28;19921;-58
2023/09/04 12:22:58;;;;;;;;;;;;;;;;;;5054354;28;19943;-59
2023/09/04 12:25:25;;;;;;;;;;;;;;;;;;5054504;28;19921;-59
2023/09/04 12:27:51;;;;;;;;;;;;;;;;;;5054249;28;20392;-59
2023/09/04 12:30:18;;;;;;;;;;;;;;;;;;5066526;28;19920;-58
2023/09/04 12:32:44;;;;;;;;;;;;;;;;;;5074240;28;19920;-58
2023/09/04 12:35:12;;;;;;;1.08;0.70;;;;;;;;;;5073227;28;20362;-58
2023/09/04 12:37:41;;;;;;;1.08;0.60;;;;;;;;;;5073162;28;20060;-58
2023/09/04 12:40:09;;;;;;;1.08;0.75;;;;;;;;;;5073560;28;20052;-58
2023/09/04 12:42:36;;;;;;;1.10;0.70;;;;;;;;;;5072677;28;20059;-58
2023/09/04 12:45:06;;;;;;;1.05;0.60;;;;;;;;;;5073436;28;20486;-59
2023/09/04 12:47:32;;;;;;;0.98;0.60;;;;;;;;;;5072376;28;20055;-58
2023/09/04 12:50:04;;;;;;;1.08;0.70;;;;;;;;;;5073201;28;20059;-58
2023/09/04 12:52:33;;;;;;;1.17;0.70;;;;;;;;;;5072896;28;20052;-58
2023/09/04 12:55:00;;;;;;;1.00;0.75;;;;;;;;;;5073188;28;20059;-58
2023/09/04 12:57:27;;;;;;;0.85;0.50;;;;;;;;;;5072980;28;20417;-58
2023/09/04 12:59:54;;;;;;;0.95;0.68;;;;;;;;;;5072790;28;20397;-58
2023/09/04 13:02:21;;;;;;;1.65;0.88;;;;;;;;;;5072998;28;20508;-58
2023/09/04 13:04:48;;;;;;;1.63;0.80;;;;;;;;;;5072660;28;20382;-58
2023/09/04 13:07:15;;;;;;;1.20;0.85;;;;;;;;;;5072834;28;20056;-58
2023/09/04 13:09:43;;;;;;;1.25;0.70;;;;;;;;;;5072536;28;20064;-58
2023/09/04 13:12:10;;;;;;;2.03;0.88;;;;;;;;;;5072880;28;20057;-58
2023/09/04 13:14:37;;;;;;;1.42;0.85;;;;;;;;;;5072471;28;20060;-58
2023/09/04 13:17:04;;;;;;;2.53;0.80;;;;;;;;;;5072268;28;20049;-58
2023/09/04 13:19:31;;;;;;;1.13;0.68;;;;;;;;;;5072372;28;20056;-58
2023/09/04 13:21:57;;;;;;;0.90;0.60;;;;;;;;;;5072268;28;20469;-58
2023/09/04 13:24:24;;;;;;;2.30;1.20;;;;;;;;;;5072397;28;20048;-58
2023/09/04 13:26:52;;;;;;;0.73;0.50;;;;;;;;;;5072814;28;20056;-58
2023/09/04 13:29:20;;;;;;;1.10;0.70;;;;;;;;;;5072542;28;20040;-58
2023/09/04 13:31:49;;;;;;;1.27;0.77;;;;;;;;;;5072613;28;20056;-58
2023/09/04 13:34:16;;;;;;;1.27;0.68;;;;;;;;;;5072732;28;20504;-58
2023/09/04 13:36:43;;;;;;;1.42;0.60;;;;;;;;;;5072816;28;20489;-58
2023/09/04 13:39:11;;;;;;;1.65;0.80;;;;;;;;;;5072147;28;20512;-58
2023/09/04 13:41:37;;;;;;;1.30;0.70;;;;;;;;;;5072708;28;20393;-59
2023/09/04 13:44:06;;;;;;;1.90;0.70;;;;;;;;;;5072346;28;20063;-58
2023/09/04 13:46:33;;;;;;;0.90;0.60;;;;;;;;;;5072601;28;20057;-58
2023/09/04 13:49:00;;;;;;;1.58;1.00;;;;;;;;;;5072197;28;20052;-59
2023/09/04 13:51:27;;;;;;;1.67;0.63;;;;;;;;;;5072044;28;20060;-59
2023/09/04 13:53:54;;;;;;;1.38;0.93;;;;;;;;;;5071956;28;20057;-58
2023/09/04 13:56:20;;;;;;;2.17;0.82;;;;;;;;;;5072614;28;20056;-58
2023/09/04 13:58:47;;;;;;;3.03;0.98;;;;;;;;;;5073169;28;20059;-58
2023/09/04 14:01:16;;;;;;;1.20;0.70;;;;;;;;;;5076587;28;20398;-58
2023/09/04 14:03:42;;;;;;;2.28;0.80;;;;;;;;;;5076329;28;20059;-59
2023/09/04 14:06:09;;;;;;;0.70;0.50;;;;;;;;;;5076463;28;20079;-58
2023/09/04 14:08:36;;;;;;;0.90;0.52;;;;;;;;;;5076368;28;20405;-58
2023/09/04 14:11:03;;;;;;;0.90;0.50;;;;;;;;;;5076296;28;20064;-58
2023/09/04 14:13:30;;;;;;;2.20;0.67;;;;;;;;;;5076390;28;20052;-58
2023/09/04 14:15:57;;;;;;;1.15;0.75;;;;;;;;;;5076209;28;20160;-57
2023/09/04 14:18:25;;;;;;;1.52;0.93;;;;;;;;;;5075841;28;20522;-58
2023/09/04 14:20:52;;;;;;;;;;;;;;;;;;5076206;28;20056;-58
2023/09/04 14:23:19;;;;;;;3.28;1.42;;;;;;;;;;5075916;28;20281;-58
2023/09/04 14:25:48;;;;;;;0.82;0.50;;;;;;;;;;5075841;28;20059;-58
2023/09/04 14:28:16;;;;;;;1.10;0.70;;;;;;;;;;5075800;28;20486;-57
2023/09/04 14:30:43;;;;;;;1.23;0.60;;;;;;;;;;5075410;28;20394;-58
2023/09/04 14:33:10;;;;;;;1.67;1.05;;;;;;;;;;5075437;28;20052;-58
2023/09/04 14:35:38;;;;;;;1.98;1.00;;;;;;;;;;5075154;28;20056;-59
2023/09/04 14:38:06;;;;;;;2.45;0.90;;;;;;;;;;5075187;28;20056;-58
2023/09/04 14:40:33;;;;;;;1.55;0.80;;;;;;;;;;5075486;28;20048;-58
2023/09/04 14:43:00;;;;;;;2.42;0.65;;;;;;;;;;5075219;28;20060;-59
2023/09/04 14:45:30;;;;;;;2.58;0.70;;;;;;;;;;5075307;28;20396;-58
2023/09/04 14:47:57;;;;;;;1.20;0.57;;;;;;;;;;5075138;28;20052;-58
2023/09/04 14:50:24;;;;;;;1.70;0.50;;;;;;;;;;5075242;28;20053;-58